Flugplatz Kiel-Holtenau

Bericht für EDHK

vom 01.12. um 09:20 UTC

Wind 14 kt aus 220°

Sichtweite 10 km oder mehr

schwacher Regen

schwacher Sprühregen

aufgebrochene Bewölkung in 900 ft

bedeckt in 1600 ft

Temperatur 8.0°C

Taupunkt 7.0°C

Luftfeuchtigkeit 93%

Luftdruck 983 hPa

EDHK 010920Z 22014KT 180V250 9999 -RADZ BKN009 OVC016 08/07 Q0983

Prognose für EDHK

vom 01.12. um 08:00 UTC

Zwischen 09:00 UTC und 18:00 UTC

Wind 10 kt aus 170°

Sichtweite 7000 m

aufgebrochene Bewölkung in 500 ft


Zwischen 09:00 UTC und 18:00 UTC zeitweise

Sichtweite 4500 m

schwacher Regen

aufgebrochene Bewölkung in 400 ft


Zwischen 09:00 und 11:00 UTC übergehend zu

Wind 20 kt aus 220° in Böen 35 kt

Sichtweite 7000 m

aufgebrochene Bewölkung in 1000 ft


Zwischen 11:00 UTC und 18:00 UTC zeitweise mit einer Wahrscheinlichkeit von 30%

Wind 25 kt aus 220° in Böen 45 kt

TAF EDHK 010800Z 0109/0118 17010KT 7000 BKN005 TEMPO 0109/0118 4500 -RA BKN004 BECMG 0109/0111 22020G35KT BKN010 PROB30 TEMPO 0111/0118 22025G45KT
Impressum